Time,TemperatureF,DewpointF,PressureIn,WindDirection,WindDirectionDegrees,WindSpeedMPH,WindSpeedGustMPH,Humidity,HourlyPrecipIn,Conditions,Clouds,dailyrainin,SolarRadiationWatts/m^2,SoftwareType,DateUTC
2013-06-22 00:01:00,60.9,21.8,29.85,NNW,328,0.0,2.0,22,0.00,,CLR,0.00,0.00,VWS V14.01,2013-06-22 07:01:00,
2013-06-22 00:06:00,60.8,20.6,29.85,NNW,328,2.0,3.0,21,0.00,,CLR,0.00,0.00,VWS V14.01,2013-06-22 07:06:00,
2013-06-22 00:11:00,60.8,21.7,29.85,NNW,333,0.0,2.0,22,0.00,,CLR,0.00,0.00,VWS V14.01,2013-06-22 07:11:00,
2013-06-22 00:16:00,60.9,21.8,29.85,NNW,340,3.0,4.0,22,0.00,,CLR,0.00,0.00,VWS V14.01,2013-06-22 07:16:00,
2013-06-22 00:21:00,61.1,22.0,29.85,NNW,340,3.0,4.0,22,0.00,,CLR,0.00,0.00,VWS V14.01,2013-06-22 07:21:00,
2013-06-22 00:26:00,61.2,23.1,29.85,NNW,337,2.0,4.0,23,0.00,,CLR,0.00,0.00,VWS V14.01,2013-06-22 07:26:00,
2013-06-22 00:31:00,61.2,23.1,29.85,NW,318,2.0,3.0,23,0.00,,CLR,0.00,0.00,VWS V14.01,2013-06-22 07:31:00,
2013-06-22 00:36:00,61.1,23.0,29.85,NW,316,4.0,4.0,23,0.00,,CLR,0.00,0.00,VWS V14.01,2013-06-22 07:36:00,
2013-06-22 00:41:00,61.1,23.0,29.86,NW,325,2.0,2.0,23,0.00,,CLR,0.00,0.00,VWS V14.01,2013-06-22 07:41:00,
2013-06-22 00:46:00,60.9,23.9,29.85,NNW,346,0.0,1.0,24,0.00,,CLR,0.00,0.00,VWS V14.01,2013-06-22 07:46:00,
2013-06-22 00:51:00,60.7,24.7,29.86,North,355,2.0,5.0,25,0.00,,CLR,0.00,0.00,VWS V14.01,2013-06-22 07:51:00,
2013-06-22 00:56:00,60.7,25.6,29.86,North,355,2.0,5.0,26,0.00,,CLR,0.00,0.00,VWS V14.01,2013-06-22 07:56:00,
2013-06-22 01:01:00,60.7,25.6,29.86,NNW,346,1.0,3.0,26,0.00,,CLR,0.00,0.00,VWS V14.01,2013-06-22 08:01:00,
2013-06-22 01:06:00,60.8,26.6,29.86,North,350,3.0,3.0,27,0.00,,CLR,0.00,0.00,VWS V14.01,2013-06-22 08:06:00,
2013-06-22 01:11:00,60.9,26.7,29.86,NNW,345,5.0,6.0,27,0.00,,CLR,0.00,0.00,VWS V14.01,2013-06-22 08:11:00,
2013-06-22 01:16:00,61.3,26.1,29.86,North,355,4.0,7.0,26,0.00,,CLR,0.00,0.00,VWS V14.01,2013-06-22 08:16:00,
2013-06-22 01:21:00,61.4,25.3,29.86,NNW,346,2.0,4.0,25,0.00,,CLR,0.00,0.00,VWS V14.01,2013-06-22 08:21:00,
2013-06-22 01:26:00,61.1,26.0,29.86,NNW,342,1.0,4.0,26,0.00,,CLR,0.00,0.00,VWS V14.01,2013-06-22 08:26:00,
2013-06-22 01:31:00,60.6,26.5,29.86,NNW,342,0.0,0.0,27,0.00,,CLR,0.00,0.00,VWS V14.01,2013-06-22 08:31:00,
2013-06-22 01:36:00,60.2,27.0,29.86,NNW,342,1.0,1.0,28,0.00,,CLR,0.00,0.00,VWS V14.01,2013-06-22 08:36:00,
2013-06-22 01:41:00,59.8,26.6,29.86,NNW,342,1.0,1.0,28,0.00,,CLR,0.00,0.00,VWS V14.01,2013-06-22 08:41:00,
2013-06-22 01:46:00,59.6,26.5,29.86,NNW,342,2.0,3.0,28,0.00,,CLR,0.00,0.00,VWS V14.01,2013-06-22 08:46:00,
2013-06-22 01:51:00,59.2,25.3,29.86,NNW,342,2.0,3.0,27,0.00,,CLR,0.00,0.00,VWS V14.01,2013-06-22 08:51:00,
2013-06-22 01:56:00,58.8,24.9,29.86,NNW,340,2.0,3.0,27,0.00,,CLR,0.00,0.00,VWS V14.01,2013-06-22 08:56:00,
2013-06-22 02:01:00,58.5,25.5,29.86,NNW,332,2.0,4.0,28,0.00,,CLR,0.00,0.00,VWS V14.01,2013-06-22 09:01:00,
2013-06-22 02:06:00,58.2,25.3,29.86,NNW,331,5.0,5.0,28,0.00,,CLR,0.00,0.00,VWS V14.01,2013-06-22 09:06:00,
2013-06-22 02:11:00,58.2,26.1,29.86,NNW,338,2.0,4.0,29,0.00,,CLR,0.00,0.00,VWS V14.01,2013-06-22 09:11:00,
2013-06-22 02:16:00,58.2,26.1,29.87,NNW,340,3.0,4.0,29,0.00,,CLR,0.00,0.00,VWS V14.01,2013-06-22 09:16:00,
2013-06-22 02:21:00,58.0,26.0,29.87,NNW,343,1.0,1.0,29,0.00,,CLR,0.00,0.00,VWS V14.01,2013-06-22 09:21:00,
2013-06-22 02:26:00,57.7,25.7,29.87,NNW,344,0.0,1.0,29,0.00,,CLR,0.00,0.00,VWS V14.01,2013-06-22 09:26:00,
2013-06-22 02:31:00,57.3,25.3,29.87,NNW,344,0.0,2.0,29,0.00,,CLR,0.00,0.00,VWS V14.01,2013-06-22 09:31:00,
2013-06-22 02:36:00,57.1,26.0,29.87,NNW,344,4.0,5.0,30,0.00,,CLR,0.00,0.00,VWS V14.01,2013-06-22 09:36:00,
2013-06-22 02:41:00,57.3,26.2,29.87,NNW,344,2.0,4.0,30,0.00,,CLR,0.00,0.00,VWS V14.01,2013-06-22 09:41:00,
2013-06-22 02:46:00,57.3,26.2,29.87,NNW,345,0.0,0.0,30,0.00,,CLR,0.00,0.00,VWS V14.01,2013-06-22 09:46:00,
2013-06-22 02:51:00,57.2,26.9,29.87,NNW,347,0.0,0.0,31,0.00,,CLR,0.00,0.00,VWS V14.01,2013-06-22 09:51:00,
2013-06-22 02:56:00,57.0,26.7,29.87,NNW,347,0.0,0.0,31,0.00,,CLR,0.00,0.00,VWS V14.01,2013-06-22 09:56:00,
2013-06-22 03:01:00,56.7,26.4,29.87,NNW,347,0.0,0.0,31,0.00,,CLR,0.00,0.00,VWS V14.01,2013-06-22 10:01:00,
2013-06-22 03:06:00,56.5,26.2,29.87,NNW,347,0.0,0.0,31,0.00,,CLR,0.00,0.00,VWS V14.01,2013-06-22 10:06:00,
2013-06-22 03:11:00,56.2,26.0,29.87,NNW,347,0.0,0.0,31,0.00,,CLR,0.00,0.00,VWS V14.01,2013-06-22 10:11:00,
2013-06-22 03:16:00,55.8,26.4,29.86,NNW,347,0.0,0.0,32,0.00,,CLR,0.00,0.00,VWS V14.01,2013-06-22 10:16:00,
2013-06-22 03:21:00,55.5,26.1,29.86,NNW,347,0.0,0.0,32,0.00,,CLR,0.00,0.00,VWS V14.01,2013-06-22 10:21:00,
2013-06-22 03:26:00,55.2,26.6,29.86,NNW,347,0.0,0.0,33,0.00,,CLR,0.00,0.00,VWS V14.01,2013-06-22 10:26:00,
2013-06-22 03:31:00,54.8,26.3,29.86,NNW,347,0.0,0.0,33,0.00,,CLR,0.00,0.00,VWS V14.01,2013-06-22 10:31:00,
2013-06-22 03:36:00,54.2,27.2,29.87,NNW,347,0.0,0.0,35,0.00,,CLR,0.00,0.00,VWS V14.01,2013-06-22 10:36:00,
2013-06-22 03:41:00,53.9,26.2,29.86,NNW,347,0.0,0.0,34,0.00,,CLR,0.00,0.00,VWS V14.01,2013-06-22 10:41:00,
2013-06-22 03:46:00,53.3,26.4,29.86,NNW,347,0.0,0.0,35,0.00,,CLR,0.00,0.00,VWS V14.01,2013-06-22 10:46:00,
2013-06-22 03:51:00,52.5,26.3,29.87,NNW,347,0.0,2.0,36,0.00,,CLR,0.00,0.00,VWS V14.01,2013-06-22 10:51:00,
2013-06-22 03:56:00,51.9,26.5,29.87,NNW,347,0.0,0.0,37,0.00,,CLR,0.00,0.00,VWS V14.01,2013-06-22 10:56:00,
2013-06-22 04:01:00,51.5,27.4,29.87,NNW,347,0.0,0.0,39,0.00,,CLR,0.00,0.00,VWS V14.01,2013-06-22 11:01:00,
2013-06-22 04:06:00,51.3,27.2,29.87,NNW,347,0.0,1.0,39,0.00,,CLR,0.00,0.00,VWS V14.01,2013-06-22 11:06:00,
2013-06-22 04:11:00,51.1,26.4,29.87,NNW,347,0.0,1.0,38,0.00,,CLR,0.00,0.00,VWS V14.01,2013-06-22 11:11:00,
2013-06-22 04:16:00,51.0,25.7,29.87,NNW,347,2.0,2.0,37,0.00,,CLR,0.00,0.00,VWS V14.01,2013-06-22 11:16:00,
2013-06-22 04:21:00,51.0,26.3,29.87,NNW,346,1.0,2.0,38,0.00,,CLR,0.00,0.00,VWS V14.01,2013-06-22 11:21:00,
2013-06-22 04:26:00,51.0,26.3,29.87,NNW,346,0.0,1.0,38,0.00,,CLR,0.00,0.00,VWS V14.01,2013-06-22 11:26:00,
2013-06-22 04:31:00,50.9,28.6,29.87,NNW,346,0.0,1.0,42,0.00,,CLR,0.00,0.00,VWS V14.01,2013-06-22 11:31:00,
2013-06-22 04:36:00,50.7,27.9,29.87,NNW,346,0.0,1.0,41,0.00,,CLR,0.00,0.00,VWS V14.01,2013-06-22 11:36:00,
2013-06-22 04:41:00,50.6,27.2,29.87,NNW,346,2.0,2.0,40,0.00,,CLR,0.00,0.00,VWS V14.01,2013-06-22 11:41:00,
2013-06-22 04:46:00,50.5,26.5,29.87,NNW,346,0.0,1.0,39,0.00,,CLR,0.00,0.00,VWS V14.01,2013-06-22 11:46:00,
2013-06-22 04:51:00,50.4,26.4,29.87,NNW,346,0.0,0.0,39,0.00,,CLR,0.00,0.00,VWS V14.01,2013-06-22 11:51:00,
2013-06-22 04:56:00,50.4,26.4,29.87,NNW,346,1.0,1.0,39,0.00,,CLR,0.00,0.00,VWS V14.01,2013-06-22 11:56:00,
2013-06-22 05:01:00,50.2,26.2,29.88,NNW,346,0.0,0.0,39,0.00,,CLR,0.00,0.00,VWS V14.01,2013-06-22 12:01:00,
2013-06-22 05:06:00,50.0,26.0,29.88,NNW,346,0.0,0.0,39,0.00,,CLR,0.00,0.00,VWS V14.01,2013-06-22 12:06:00,
2013-06-22 05:11:00,49.8,26.5,29.88,NNW,346,0.0,1.0,40,0.00,,CLR,0.00,0.00,VWS V14.01,2013-06-22 12:11:00,
2013-06-22 05:16:00,49.5,26.2,29.88,NNW,346,0.0,0.0,40,0.00,,CLR,0.00,0.00,VWS V14.01,2013-06-22 12:16:00,
2013-06-22 05:21:00,49.4,26.7,29.88,NNW,346,2.0,2.0,41,0.00,,CLR,0.00,0.00,VWS V14.01,2013-06-22 12:21:00,
2013-06-22 05:26:00,49.5,26.2,29.88,NNW,344,0.0,1.0,40,0.00,,CLR,0.00,0.00,VWS V14.01,2013-06-22 12:26:00,
2013-06-22 05:31:00,49.6,26.3,29.88,NNW,344,0.0,1.0,40,0.00,,CLR,0.00,5.00,VWS V14.01,2013-06-22 12:31:00,
2013-06-22 05:36:00,49.7,26.4,29.88,NNW,344,0.0,0.0,40,0.00,,CLR,0.00,7.00,VWS V14.01,2013-06-22 12:36:00,
2013-06-22 05:41:00,49.7,26.4,29.89,NNW,344,0.0,0.0,40,0.00,,CLR,0.00,9.00,VWS V14.01,2013-06-22 12:41:00,
2013-06-22 05:46:00,49.6,26.3,29.89,NNW,344,0.0,0.0,40,0.00,,CLR,0.00,11.00,VWS V14.01,2013-06-22 12:46:00,
2013-06-22 05:51:00,49.5,27.4,29.89,NNW,344,0.0,0.0,42,0.00,,CLR,0.00,12.00,VWS V14.01,2013-06-22 12:51:00,
2013-06-22 05:56:00,49.3,26.6,29.89,NNW,344,0.0,0.0,41,0.00,,CLR,0.00,19.00,VWS V14.01,2013-06-22 12:56:00,
2013-06-22 06:01:00,49.2,26.5,29.89,NNW,344,0.0,2.0,41,0.00,,CLR,0.00,28.00,VWS V14.01,2013-06-22 13:01:00,
2013-06-22 06:06:00,49.2,26.5,29.90,NNW,344,0.0,0.0,41,0.00,,CLR,0.00,39.00,VWS V14.01,2013-06-22 13:06:00,
2013-06-22 06:11:00,49.2,26.5,29.90,NNW,344,0.0,0.0,41,0.00,,CLR,0.00,49.00,VWS V14.01,2013-06-22 13:11:00,
2013-06-22 06:16:00,49.5,27.4,29.90,NNW,344,0.0,0.0,42,0.00,,CLR,0.00,62.00,VWS V14.01,2013-06-22 13:16:00,
2013-06-22 06:21:00,49.8,27.1,29.90,NNW,344,0.0,0.0,41,0.00,,CLR,0.00,72.00,VWS V14.01,2013-06-22 13:21:00,
2013-06-22 06:26:00,50.1,27.3,29.90,NNW,344,0.0,0.0,41,0.00,,CLR,0.00,86.00,VWS V14.01,2013-06-22 13:26:00,
2013-06-22 06:31:00,50.6,28.4,29.90,NNW,344,0.0,0.0,42,0.00,,CLR,0.00,100.00,VWS V14.01,2013-06-22 13:31:00,
2013-06-22 06:36:00,51.6,29.3,29.90,NNW,344,0.0,0.0,42,0.00,,CLR,0.00,116.00,VWS V14.01,2013-06-22 13:36:00,
2013-06-22 06:41:00,52.7,29.7,29.90,NNW,344,0.0,0.0,41,0.00,,CLR,0.00,134.00,VWS V14.01,2013-06-22 13:41:00,
2013-06-22 06:46:00,53.9,28.9,29.90,NNW,344,0.0,0.0,38,0.00,,CLR,0.00,149.00,VWS V14.01,2013-06-22 13:46:00,
2013-06-22 06:51:00,54.9,29.1,29.90,NNW,344,0.0,1.0,37,0.00,,CLR,0.00,167.00,VWS V14.01,2013-06-22 13:51:00,
2013-06-22 06:56:00,55.8,29.3,29.90,NNW,348,1.0,2.0,36,0.00,,CLR,0.00,183.00,VWS V14.01,2013-06-22 13:56:00,
2013-06-22 07:01:00,56.2,32.8,29.91,North,5,0.0,0.0,41,0.00,,CLR,0.00,195.00,VWS V14.01,2013-06-22 14:01:00,
2013-06-22 07:06:00,56.4,31.8,29.91,North,5,0.0,0.0,39,0.00,,CLR,0.00,209.00,VWS V14.01,2013-06-22 14:06:00,
2013-06-22 07:11:00,56.9,30.9,29.91,North,5,1.0,1.0,37,0.00,,CLR,0.00,223.00,VWS V14.01,2013-06-22 14:11:00,
2013-06-22 07:16:00,57.3,32.6,29.91,North,5,0.0,2.0,39,0.00,,CLR,0.00,239.00,VWS V14.01,2013-06-22 14:16:00,
2013-06-22 07:21:00,57.3,33.8,29.91,North,5,0.0,1.0,41,0.00,,CLR,0.00,255.00,VWS V14.01,2013-06-22 14:21:00,
2013-06-22 07:26:00,57.8,31.7,29.91,North,5,0.0,0.0,37,0.00,,CLR,0.00,271.00,VWS V14.01,2013-06-22 14:26:00,
2013-06-22 07:31:00,58.2,32.1,29.91,North,5,0.0,1.0,37,0.00,,CLR,0.00,287.00,VWS V14.01,2013-06-22 14:31:00,
2013-06-22 07:36:00,58.7,31.8,29.91,North,5,0.0,0.0,36,0.00,,CLR,0.00,297.00,VWS V14.01,2013-06-22 14:36:00,
2013-06-22 07:41:00,59.3,30.2,29.91,North,5,0.0,0.0,33,0.00,,CLR,0.00,313.00,VWS V14.01,2013-06-22 14:41:00,
2013-06-22 07:46:00,60.3,31.1,29.91,North,5,0.0,0.0,33,0.00,,CLR,0.00,330.00,VWS V14.01,2013-06-22 14:46:00,
2013-06-22 07:51:00,61.2,31.1,29.91,NE,43,4.0,4.0,32,0.00,,CLR,0.00,346.00,VWS V14.01,2013-06-22 14:51:00,
2013-06-22 07:56:00,61.8,30.9,29.91,NNE,28,2.0,3.0,31,0.00,,CLR,0.00,362.00,VWS V14.01,2013-06-22 14:56:00,
2013-06-22 08:01:00,62.0,30.2,29.91,NE,45,6.0,7.0,30,0.00,,CLR,0.00,378.00,VWS V14.01,2013-06-22 15:01:00,
2013-06-22 08:06:00,62.2,31.2,29.91,NE,42,3.0,5.0,31,0.00,,CLR,0.00,394.00,VWS V14.01,2013-06-22 15:06:00,
2013-06-22 08:11:00,62.5,30.7,29.91,NNE,32,5.0,6.0,30,0.00,,CLR,0.00,406.00,VWS V14.01,2013-06-22 15:11:00,
2013-06-22 08:16:00,62.8,30.9,29.91,NE,42,5.0,7.0,30,0.00,,CLR,0.00,422.00,VWS V14.01,2013-06-22 15:16:00,
2013-06-22 08:21:00,63.1,30.4,29.91,NE,46,4.0,6.0,29,0.00,,CLR,0.00,438.00,VWS V14.01,2013-06-22 15:21:00,
2013-06-22 08:26:00,63.0,30.3,29.91,NE,35,5.0,8.0,29,0.00,,CLR,0.00,454.00,VWS V14.01,2013-06-22 15:26:00,
2013-06-22 08:31:00,63.1,31.2,29.91,NNE,25,2.0,6.0,30,0.00,,CLR,0.00,468.00,VWS V14.01,2013-06-22 15:31:00,
2013-06-22 08:36:00,63.6,31.6,29.91,NE,39,6.0,7.0,30,0.00,,CLR,0.00,482.00,VWS V14.01,2013-06-22 15:36:00,
2013-06-22 08:41:00,63.9,31.0,29.91,NNE,30,7.0,7.0,29,0.00,,CLR,0.00,496.00,VWS V14.01,2013-06-22 15:41:00,
2013-06-22 08:46:00,63.9,31.0,29.91,NNE,29,4.0,5.0,29,0.00,,CLR,0.00,512.00,VWS V14.01,2013-06-22 15:46:00,
2013-06-22 08:51:00,64.5,31.6,29.91,NE,54,4.0,4.0,29,0.00,,CLR,0.00,526.00,VWS V14.01,2013-06-22 15:51:00,
2013-06-22 08:56:00,64.6,30.8,29.91,NNE,25,3.0,7.0,28,0.00,,CLR,0.00,540.00,VWS V14.01,2013-06-22 15:56:00,
2013-06-22 09:01:00,64.9,31.0,29.91,NE,42,5.0,7.0,28,0.00,,CLR,0.00,555.00,VWS V14.01,2013-06-22 16:01:00,
2013-06-22 09:06:00,65.6,31.6,29.91,NE,38,2.0,7.0,28,0.00,,CLR,0.00,571.00,VWS V14.01,2013-06-22 16:06:00,
2013-06-22 09:11:00,65.9,31.0,29.90,NE,49,5.0,6.0,27,0.00,,SCT200,0.00,584.00,VWS V14.01,2013-06-22 16:11:00,
2013-06-22 09:16:00,66.1,31.2,29.90,NE,43,5.0,5.0,27,0.00,,SCT200,0.00,594.00,VWS V14.01,2013-06-22 16:16:00,
2013-06-22 09:21:00,66.7,31.7,29.90,NE,55,3.0,4.0,27,0.00,,SCT200,0.00,605.00,VWS V14.01,2013-06-22 16:21:00,
2013-06-22 09:26:00,67.5,32.4,29.90,NNE,25,2.0,5.0,27,0.00,,SCT200,0.00,626.00,VWS V14.01,2013-06-22 16:26:00,
2013-06-22 09:31:00,66.9,30.9,29.90,NNE,29,5.0,7.0,26,0.00,,SCT200,0.00,638.00,VWS V14.01,2013-06-22 16:31:00,
2013-06-22 09:36:00,67.1,31.1,29.90,North,360,0.0,3.0,26,0.00,,SCT200,0.00,649.00,VWS V14.01,2013-06-22 16:36:00,
2013-06-22 09:41:00,67.7,31.6,29.90,NNW,338,2.0,4.0,26,0.00,,SCT200,0.00,663.00,VWS V14.01,2013-06-22 16:41:00,
2013-06-22 09:46:00,68.3,32.1,29.90,NNW,338,2.0,3.0,26,0.00,,SCT200,0.00,671.00,VWS V14.01,2013-06-22 16:46:00,
2013-06-22 09:51:00,69.0,31.8,29.90,NNE,26,5.0,6.0,25,0.00,,SCT200,0.00,686.00,VWS V14.01,2013-06-22 16:51:00,
2013-06-22 09:56:00,69.2,31.9,29.90,North,11,3.0,7.0,25,0.00,,SCT200,0.00,689.00,VWS V14.01,2013-06-22 16:56:00,
2013-06-22 10:01:00,69.3,32.0,29.90,North,360,3.0,5.0,25,0.00,,SCT200,0.00,703.00,VWS V14.01,2013-06-22 17:01:00,
2013-06-22 10:06:00,69.8,32.4,29.90,NNE,28,1.0,4.0,25,0.00,,SCT200,0.00,714.00,VWS V14.01,2013-06-22 17:06:00,
2013-06-22 10:11:00,70.5,32.0,29.90,NE,42,1.0,4.0,24,0.00,,SCT200,0.00,733.00,VWS V14.01,2013-06-22 17:11:00,
2013-06-22 10:16:00,71.2,31.5,29.89,ENE,59,4.0,6.0,23,0.00,,SCT200,0.00,729.00,VWS V14.01,2013-06-22 17:16:00,
2013-06-22 10:21:00,71.3,31.6,29.89,NE,53,5.0,5.0,23,0.00,,SCT200,0.00,749.00,VWS V14.01,2013-06-22 17:21:00,
2013-06-22 10:26:00,71.7,32.0,29.89,ENE,77,4.0,7.0,23,0.00,,SCT200,0.00,765.00,VWS V14.01,2013-06-22 17:26:00,
2013-06-22 10:31:00,72.3,31.4,29.89,ESE,105,0.0,3.0,22,0.00,,SCT200,0.00,773.00,VWS V14.01,2013-06-22 17:31:00,
2013-06-22 10:36:00,72.5,32.6,29.89,ENE,67,4.0,7.0,23,0.00,,SCT200,0.00,789.00,VWS V14.01,2013-06-22 17:36:00,
2013-06-22 10:41:00,72.7,31.7,29.88,NE,40,2.0,3.0,22,0.00,,SCT200,0.00,800.00,VWS V14.01,2013-06-22 17:41:00,
2013-06-22 10:46:00,73.3,32.2,29.88,SE,126,2.0,4.0,22,0.00,,SCT200,0.00,809.00,VWS V14.01,2013-06-22 17:46:00,
2013-06-22 10:51:00,73.2,31.0,29.88,SSE,165,3.0,4.0,21,0.00,,SCT200,0.00,817.00,VWS V14.01,2013-06-22 17:51:00,
2013-06-22 10:56:00,72.8,30.6,29.88,South,173,1.0,6.0,21,0.00,,SCT200,0.00,824.00,VWS V14.01,2013-06-22 17:56:00,
2013-06-22 11:01:00,73.6,31.3,29.88,NNE,28,0.0,3.0,21,0.00,,FEW200,0.00,833.00,VWS V14.01,2013-06-22 18:01:00,
2013-06-22 11:06:00,73.9,31.5,29.88,North,351,4.0,6.0,21,0.00,,FEW200,0.00,842.00,VWS V14.01,2013-06-22 18:06:00,
2013-06-22 11:11:00,73.9,31.5,29.88,NNE,26,6.0,6.0,21,0.00,,FEW200,0.00,851.00,VWS V14.01,2013-06-22 18:11:00,
2013-06-22 11:16:00,73.7,31.4,29.88,East,101,2.0,4.0,21,0.00,,FEW200,0.00,858.00,VWS V14.01,2013-06-22 18:16:00,
2013-06-22 11:21:00,74.0,31.6,29.87,ESE,122,4.0,7.0,21,0.00,,FEW200,0.00,865.00,VWS V14.01,2013-06-22 18:21:00,
2013-06-22 11:26:00,74.9,31.2,29.87,SSE,167,3.0,5.0,20,0.00,,FEW200,0.00,877.00,VWS V14.01,2013-06-22 18:26:00,
2013-06-22 11:31:00,75.1,31.3,29.87,SSW,207,0.0,1.0,20,0.00,,FEW200,0.00,881.00,VWS V14.01,2013-06-22 18:31:00,
2013-06-22 11:36:00,76.0,30.8,29.87,South,184,1.0,6.0,19,0.00,,FEW200,0.00,888.00,VWS V14.01,2013-06-22 18:36:00,
2013-06-22 11:41:00,75.9,30.7,29.87,SW,215,3.0,8.0,19,0.00,,FEW200,0.00,893.00,VWS V14.01,2013-06-22 18:41:00,
2013-06-22 11:46:00,75.7,30.6,29.87,West,259,3.0,7.0,19,0.00,,FEW200,0.00,898.00,VWS V14.01,2013-06-22 18:46:00,
2013-06-22 11:51:00,77.1,30.4,29.86,NNE,22,1.0,2.0,18,0.00,,FEW200,0.00,902.00,VWS V14.01,2013-06-22 18:51:00,
2013-06-22 11:56:00,77.8,30.9,29.86,SSE,158,4.0,8.0,18,0.00,,FEW200,0.00,912.00,VWS V14.01,2013-06-22 18:56:00,
2013-06-22 12:01:00,77.3,31.9,29.86,WSW,240,5.0,7.0,19,0.00,,CLR,0.00,912.00,VWS V14.01,2013-06-22 19:01:00,
2013-06-22 12:06:00,77.3,31.9,29.86,South,190,7.0,8.0,19,0.00,,CLR,0.00,918.00,VWS V14.01,2013-06-22 19:06:00,
2013-06-22 12:11:00,77.1,31.7,29.85,SW,229,6.0,6.0,19,0.00,,CLR,0.00,925.00,VWS V14.01,2013-06-22 19:11:00,
2013-06-22 12:16:00,77.0,30.3,29.85,South,184,6.0,9.0,18,0.00,,CLR,0.00,928.00,VWS V14.01,2013-06-22 19:16:00,
2013-06-22 12:21:00,77.0,30.3,29.85,SSW,207,5.0,5.0,18,0.00,,CLR,0.00,932.00,VWS V14.01,2013-06-22 19:21:00,
2013-06-22 12:26:00,77.2,30.5,29.85,SSW,200,5.0,7.0,18,0.00,,CLR,0.00,930.00,VWS V14.01,2013-06-22 19:26:00,
2013-06-22 12:31:00,76.9,30.2,29.85,ESE,120,4.0,5.0,18,0.00,,CLR,0.00,933.00,VWS V14.01,2013-06-22 19:31:00,
2013-06-22 12:36:00,77.4,29.2,29.85,SSE,161,1.0,8.0,17,0.00,,CLR,0.00,939.00,VWS V14.01,2013-06-22 19:36:00,
2013-06-22 12:41:00,77.4,29.2,29.85,South,186,4.0,9.0,17,0.00,,CLR,0.00,942.00,VWS V14.01,2013-06-22 19:41:00,
2013-06-22 12:46:00,77.9,29.6,29.84,ESE,117,4.0,6.0,17,0.00,,CLR,0.00,942.00,VWS V14.01,2013-06-22 19:46:00,
2013-06-22 12:51:00,78.6,30.2,29.84,SW,221,5.0,5.0,17,0.00,,CLR,0.00,944.00,VWS V14.01,2013-06-22 19:51:00,
2013-06-22 12:56:00,79.2,29.2,29.84,South,191,0.0,8.0,16,0.00,,CLR,0.00,944.00,VWS V14.01,2013-06-22 19:56:00,
2013-06-22 13:01:00,79.4,29.3,29.84,SSW,209,1.0,4.0,16,0.00,,CLR,0.00,946.00,VWS V14.01,2013-06-22 20:01:00,
2013-06-22 13:06:00,80.0,28.2,29.83,West,277,7.0,9.0,15,0.00,,CLR,0.00,946.00,VWS V14.01,2013-06-22 20:06:00,
2013-06-22 13:11:00,79.5,29.4,29.83,SSW,198,5.0,7.0,16,0.00,,CLR,0.00,947.00,VWS V14.01,2013-06-22 20:11:00,
2013-06-22 13:16:00,79.7,28.0,29.83,SSW,198,5.0,5.0,15,0.00,,CLR,0.00,944.00,VWS V14.01,2013-06-22 20:16:00,
2013-06-22 13:21:00,79.6,27.9,29.83,SSE,150,6.0,6.0,15,0.00,,CLR,0.00,944.00,VWS V14.01,2013-06-22 20:21:00,
2013-06-22 13:26:00,79.7,28.0,29.83,SE,128,3.0,5.0,15,0.00,,CLR,0.00,942.00,VWS V14.01,2013-06-22 20:26:00,
2013-06-22 13:31:00,80.1,28.3,29.83,SSE,163,4.0,5.0,15,0.00,,CLR,0.00,944.00,VWS V14.01,2013-06-22 20:31:00,
2013-06-22 13:36:00,80.1,28.3,29.82,SE,140,0.0,3.0,15,0.00,,CLR,0.00,940.00,VWS V14.01,2013-06-22 20:36:00,
2013-06-22 13:41:00,80.6,28.7,29.82,SE,140,0.0,1.0,15,0.00,,CLR,0.00,937.00,VWS V14.01,2013-06-22 20:41:00,
2013-06-22 13:46:00,82.0,28.1,29.82,SE,134,3.0,3.0,14,0.00,,CLR,0.00,933.00,VWS V14.01,2013-06-22 20:46:00,
2013-06-22 13:51:00,81.5,27.8,29.82,SSW,205,2.0,4.0,14,0.00,,CLR,0.00,932.00,VWS V14.01,2013-06-22 20:51:00,
2013-06-22 13:56:00,81.9,28.1,29.81,SSW,192,2.0,4.0,14,0.00,,CLR,0.00,926.00,VWS V14.01,2013-06-22 20:56:00,
2013-06-22 14:01:00,82.0,29.8,29.81,SSE,155,5.0,6.0,15,0.00,,FEW060,0.00,925.00,VWS V14.01,2013-06-22 21:01:00,
2013-06-22 14:06:00,81.4,27.7,29.81,SSE,152,0.0,5.0,14,0.00,,FEW060,0.00,916.00,VWS V14.01,2013-06-22 21:06:00,
2013-06-22 14:11:00,81.3,27.6,29.80,SSW,197,7.0,11.0,14,0.00,,FEW060,0.00,911.00,VWS V14.01,2013-06-22 21:11:00,
2013-06-22 14:16:00,80.8,27.2,29.80,SE,126,6.0,7.0,14,0.00,,FEW060,0.00,909.00,VWS V14.01,2013-06-22 21:16:00,
2013-06-22 14:21:00,80.6,27.0,29.80,South,172,2.0,5.0,14,0.00,,FEW060,0.00,902.00,VWS V14.01,2013-06-22 21:21:00,
2013-06-22 14:26:00,80.5,27.0,29.80,South,188,3.0,6.0,14,0.00,,FEW060,0.00,893.00,VWS V14.01,2013-06-22 21:26:00,
2013-06-22 14:31:00,80.9,27.3,29.79,NE,45,3.0,4.0,14,0.00,,FEW060,0.00,889.00,VWS V14.01,2013-06-22 21:31:00,
2013-06-22 14:36:00,81.4,25.9,29.79,NE,46,0.0,5.0,13,0.00,,FEW060,0.00,882.00,VWS V14.01,2013-06-22 21:36:00,
2013-06-22 14:41:00,81.2,25.7,29.79,NE,53,3.0,5.0,13,0.00,,FEW060,0.00,874.00,VWS V14.01,2013-06-22 21:41:00,
2013-06-22 14:46:00,81.4,27.7,29.79,North,360,4.0,7.0,14,0.00,,FEW060,0.00,863.00,VWS V14.01,2013-06-22 21:46:00,
2013-06-22 14:51:00,82.0,26.4,29.78,East,86,3.0,4.0,13,0.00,,FEW060,0.00,858.00,VWS V14.01,2013-06-22 21:51:00,
2013-06-22 14:56:00,82.3,26.6,29.78,South,179,4.0,4.0,13,0.00,,FEW060,0.00,847.00,VWS V14.01,2013-06-22 21:56:00,
2013-06-22 15:01:00,82.0,26.4,29.78,South,190,3.0,6.0,13,0.00,,FEW060,0.00,846.00,VWS V14.01,2013-06-22 22:01:00,
2013-06-22 15:06:00,82.3,26.6,29.78,SE,145,4.0,5.0,13,0.00,,FEW060,0.00,835.00,VWS V14.01,2013-06-22 22:06:00,
2013-06-22 15:11:00,83.6,27.6,29.77,WSW,252,1.0,4.0,13,0.00,,FEW060,0.00,824.00,VWS V14.01,2013-06-22 22:11:00,
2013-06-22 15:16:00,83.5,27.5,29.77,SSE,163,5.0,6.0,13,0.00,,FEW060,0.00,816.00,VWS V14.01,2013-06-22 22:16:00,
2013-06-22 15:21:00,82.4,26.7,29.77,South,190,4.0,6.0,13,0.00,,FEW060,0.00,807.00,VWS V14.01,2013-06-22 22:21:00,
2013-06-22 15:26:00,82.3,28.4,29.77,SSW,194,6.0,8.0,14,0.00,,FEW060,0.00,796.00,VWS V14.01,2013-06-22 22:26:00,
2013-06-22 15:31:00,82.7,26.9,29.77,SSE,165,4.0,4.0,13,0.00,,FEW060,0.00,782.00,VWS V14.01,2013-06-22 22:31:00,
2013-06-22 15:36:00,82.4,26.7,29.76,South,178,4.0,4.0,13,0.00,,FEW060,0.00,768.00,VWS V14.01,2013-06-22 22:36:00,
2013-06-22 15:41:00,82.4,26.7,29.76,ESE,118,0.0,3.0,13,0.00,,FEW060,0.00,761.00,VWS V14.01,2013-06-22 22:41:00,
2013-06-22 15:46:00,82.9,27.1,29.76,NNE,20,2.0,5.0,13,0.00,,FEW060,0.00,751.00,VWS V14.01,2013-06-22 22:46:00,
2013-06-22 15:51:00,83.0,27.1,29.76,NNW,345,8.0,10.0,13,0.00,,FEW060,0.00,738.00,VWS V14.01,2013-06-22 22:51:00,
2013-06-22 15:56:00,82.6,24.9,29.76,NE,50,6.0,7.0,12,0.00,,FEW060,0.00,731.00,VWS V14.01,2013-06-22 22:56:00,
2013-06-22 16:01:00,81.8,24.3,29.76,ENE,69,0.0,5.0,12,0.00,,FEW060,0.00,719.00,VWS V14.01,2013-06-22 23:01:00,
2013-06-22 16:06:00,82.8,25.0,29.75,ENE,78,1.0,3.0,12,0.00,,FEW060,0.00,703.00,VWS V14.01,2013-06-22 23:06:00,
2013-06-22 16:11:00,83.6,25.7,29.75,ESE,113,0.0,7.0,12,0.00,,FEW060,0.00,691.00,VWS V14.01,2013-06-22 23:11:00,
2013-06-22 16:16:00,83.8,23.8,29.75,ESE,115,3.0,5.0,11,0.00,,FEW060,0.00,680.00,VWS V14.01,2013-06-22 23:16:00,
2013-06-22 16:21:00,83.9,23.8,29.75,SSE,159,0.0,3.0,11,0.00,,FEW060,0.00,668.00,VWS V14.01,2013-06-22 23:21:00,
2013-06-22 16:26:00,83.4,23.4,29.75,SSE,154,2.0,5.0,11,0.00,,FEW060,0.00,656.00,VWS V14.01,2013-06-22 23:26:00,
2013-06-22 16:31:00,83.6,23.6,29.75,NNE,31,1.0,7.0,11,0.00,,FEW060,0.00,643.00,VWS V14.01,2013-06-22 23:31:00,
2013-06-22 16:36:00,83.3,23.4,29.75,ESE,104,1.0,5.0,11,0.00,,FEW060,0.00,629.00,VWS V14.01,2013-06-22 23:36:00,
2013-06-22 16:41:00,83.9,23.8,29.74,NE,35,5.0,5.0,11,0.00,,FEW060,0.00,615.00,VWS V14.01,2013-06-22 23:41:00,
2013-06-22 16:46:00,83.3,21.1,29.74,North,5,2.0,7.0,10,0.00,,FEW060,0.00,601.00,VWS V14.01,2013-06-22 23:46:00,
2013-06-22 16:51:00,83.3,23.4,29.74,NE,35,0.0,2.0,11,0.00,,FEW060,0.00,587.00,VWS V14.01,2013-06-22 23:51:00,
2013-06-22 16:56:00,83.4,23.4,29.74,NNE,32,5.0,6.0,11,0.00,,FEW060,0.00,573.00,VWS V14.01,2013-06-22 23:56:00,
2013-06-22 17:01:00,83.3,21.1,29.74,NNW,347,3.0,5.0,10,0.00,,FEW080,0.00,559.00,VWS V14.01,2013-06-23 00:01:00,
2013-06-22 17:06:00,82.9,20.8,29.73,NNE,20,0.0,2.0,10,0.00,,FEW080,0.00,541.00,VWS V14.01,2013-06-23 00:06:00,
2013-06-22 17:11:00,83.5,21.3,29.73,SE,142,0.0,3.0,10,0.00,,FEW080,0.00,527.00,VWS V14.01,2013-06-23 00:11:00,
2013-06-22 17:16:00,83.7,21.4,29.73,East,87,1.0,3.0,10,0.00,,FEW080,0.00,513.00,VWS V14.01,2013-06-23 00:16:00,
2013-06-22 17:21:00,84.1,21.7,29.73,ENE,66,1.0,8.0,10,0.00,,FEW080,0.00,499.00,VWS V14.01,2013-06-23 00:21:00,
2013-06-22 17:26:00,83.9,21.6,29.72,ENE,75,4.0,5.0,10,0.00,,FEW080,0.00,487.00,VWS V14.01,2013-06-23 00:26:00,
2013-06-22 17:31:00,83.9,21.6,29.72,NNE,13,1.0,4.0,10,0.00,,FEW080,0.00,473.00,VWS V14.01,2013-06-23 00:31:00,
2013-06-22 17:36:00,83.7,21.4,29.72,NE,38,8.0,8.0,10,0.00,,FEW080,0.00,457.00,VWS V14.01,2013-06-23 00:36:00,
2013-06-22 17:41:00,83.3,21.1,29.71,NE,37,3.0,8.0,10,0.00,,FEW080,0.00,441.00,VWS V14.01,2013-06-23 00:41:00,
2013-06-22 17:46:00,83.1,21.0,29.71,NNE,32,7.0,8.0,10,0.00,,FEW080,0.00,425.00,VWS V14.01,2013-06-23 00:46:00,
2013-06-22 17:51:00,82.9,20.8,29.71,East,86,1.0,3.0,10,0.00,,FEW080,0.00,410.00,VWS V14.01,2013-06-23 00:51:00,
2013-06-22 17:56:00,83.2,23.3,29.71,East,101,1.0,6.0,11,0.00,,FEW080,0.00,392.00,VWS V14.01,2013-06-23 00:56:00,
2013-06-22 18:01:00,83.2,21.0,29.70,NNE,33,2.0,6.0,10,0.00,,FEW080,0.00,380.00,VWS V14.01,2013-06-23 01:01:00,
2013-06-22 18:06:00,83.2,21.0,29.70,NNE,31,2.0,7.0,10,0.00,,FEW080,0.00,366.00,VWS V14.01,2013-06-23 01:06:00,
2013-06-22 18:11:00,83.1,21.0,29.70,NE,41,2.0,7.0,10,0.00,,FEW080,0.00,348.00,VWS V14.01,2013-06-23 01:11:00,
2013-06-22 18:16:00,82.9,20.8,29.70,NE,43,3.0,3.0,10,0.00,,FEW080,0.00,332.00,VWS V14.01,2013-06-23 01:16:00,
2013-06-22 18:21:00,82.7,20.6,29.69,ENE,57,5.0,8.0,10,0.00,,FEW080,0.00,316.00,VWS V14.01,2013-06-23 01:21:00,
2013-06-22 18:26:00,82.5,22.8,29.69,NE,34,2.0,4.0,11,0.00,,FEW080,0.00,299.00,VWS V14.01,2013-06-23 01:26:00,
2013-06-22 18:31:00,82.7,22.9,29.69,ENE,58,3.0,7.0,11,0.00,,FEW080,0.00,285.00,VWS V14.01,2013-06-23 01:31:00,
2013-06-22 18:36:00,82.2,20.3,29.69,ENE,73,1.0,7.0,10,0.00,,FEW080,0.00,271.00,VWS V14.01,2013-06-23 01:36:00,
2013-06-22 18:41:00,81.9,22.3,29.69,NE,35,1.0,5.0,11,0.00,,FEW080,0.00,257.00,VWS V14.01,2013-06-23 01:41:00,
2013-06-22 18:46:00,82.1,22.4,29.69,NE,34,6.0,11.0,11,0.00,,FEW080,0.00,241.00,VWS V14.01,2013-06-23 01:46:00,
2013-06-22 18:51:00,81.7,19.9,29.69,NE,39,2.0,5.0,10,0.00,,FEW080,0.00,223.00,VWS V14.01,2013-06-23 01:51:00,
2013-06-22 18:56:00,81.4,21.9,29.69,East,94,1.0,4.0,11,0.00,,FEW080,0.00,204.00,VWS V14.01,2013-06-23 01:56:00,
2013-06-22 19:01:00,81.5,22.0,29.69,NNE,17,2.0,6.0,11,0.00,,CLR,0.00,186.00,VWS V14.01,2013-06-23 02:01:00,
2013-06-22 19:06:00,81.6,22.0,29.69,ENE,69,0.0,3.0,11,0.00,,CLR,0.00,171.00,VWS V14.01,2013-06-23 02:06:00,
2013-06-22 19:11:00,81.5,22.0,29.69,NE,46,4.0,8.0,11,0.00,,CLR,0.00,153.00,VWS V14.01,2013-06-23 02:11:00,
2013-06-22 19:16:00,81.1,21.7,29.69,ENE,67,3.0,8.0,11,0.00,,CLR,0.00,135.00,VWS V14.01,2013-06-23 02:16:00,
2013-06-22 19:21:00,80.7,23.4,29.69,NE,53,7.0,9.0,12,0.00,,CLR,0.00,118.00,VWS V14.01,2013-06-23 02:21:00,
2013-06-22 19:26:00,80.3,25.0,29.69,ENE,68,7.0,9.0,13,0.00,,CLR,0.00,102.00,VWS V14.01,2013-06-23 02:26:00,
2013-06-22 19:31:00,80.0,22.9,29.69,East,88,2.0,7.0,12,0.00,,CLR,0.00,86.00,VWS V14.01,2013-06-23 02:31:00,
2013-06-22 19:36:00,79.7,22.6,29.68,ENE,76,2.0,5.0,12,0.00,,CLR,0.00,72.00,VWS V14.01,2013-06-23 02:36:00,
2013-06-22 19:41:00,79.4,22.4,29.68,ENE,62,5.0,7.0,12,0.00,,CLR,0.00,60.00,VWS V14.01,2013-06-23 02:41:00,
2013-06-22 19:46:00,79.3,24.2,29.68,ESE,103,2.0,5.0,13,0.00,,CLR,0.00,49.00,VWS V14.01,2013-06-23 02:46:00,
2013-06-22 19:51:00,79.0,24.0,29.68,East,99,3.0,5.0,13,0.00,,CLR,0.00,19.00,VWS V14.01,2013-06-23 02:51:00,
2013-06-22 19:56:00,78.7,23.8,29.68,ESE,107,1.0,2.0,13,0.00,,CLR,0.00,16.00,VWS V14.01,2013-06-23 02:56:00,
2013-06-22 20:01:00,78.3,25.2,29.68,ESE,102,1.0,2.0,14,0.00,,CLR,0.00,12.00,VWS V14.01,2013-06-23 03:01:00,
2013-06-22 20:06:00,77.8,24.8,29.68,ESE,117,1.0,2.0,14,0.00,,CLR,0.00,9.00,VWS V14.01,2013-06-23 03:06:00,
2013-06-22 20:11:00,77.1,25.9,29.68,ESE,116,0.0,2.0,15,0.00,,CLR,0.00,9.00,VWS V14.01,2013-06-23 03:11:00,
2013-06-22 20:16:00,76.0,28.1,29.69,ESE,119,1.0,1.0,17,0.00,,CLR,0.00,7.00,VWS V14.01,2013-06-23 03:16:00,
2013-06-22 20:21:00,74.8,29.8,29.68,ESE,119,0.0,1.0,19,0.00,,CLR,0.00,5.00,VWS V14.01,2013-06-23 03:21:00,
2013-06-22 20:26:00,74.2,29.3,29.68,ESE,119,0.0,0.0,19,0.00,,CLR,0.00,0.00,VWS V14.01,2013-06-23 03:26:00,
2013-06-22 20:31:00,74.2,28.0,29.68,SSW,213,0.0,0.0,18,0.00,,CLR,0.00,0.00,VWS V14.01,2013-06-23 03:31:00,
2013-06-22 20:36:00,74.2,28.0,29.68,SSW,213,0.0,0.0,18,0.00,,CLR,0.00,0.00,VWS V14.01,2013-06-23 03:36:00,
2013-06-22 20:41:00,74.1,27.9,29.68,SSW,213,0.0,0.0,18,0.00,,CLR,0.00,0.00,VWS V14.01,2013-06-23 03:41:00,
2013-06-22 20:46:00,73.1,27.1,29.68,SSW,213,0.0,1.0,18,0.00,,CLR,0.00,0.00,VWS V14.01,2013-06-23 03:46:00,
2013-06-22 20:51:00,72.0,30.0,29.68,SSW,213,0.0,0.0,21,0.00,,CLR,0.00,0.00,VWS V14.01,2013-06-23 03:51:00,
2013-06-22 20:56:00,71.5,28.4,29.69,SSW,213,0.0,1.0,20,0.00,,CLR,0.00,0.00,VWS V14.01,2013-06-23 03:56:00,
2013-06-22 21:01:00,70.7,30.0,29.69,SSW,213,0.0,0.0,22,0.00,,CLR,0.00,0.00,VWS V14.01,2013-06-23 04:01:00,
2013-06-22 21:06:00,69.7,30.3,29.69,SSW,213,1.0,1.0,23,0.00,,CLR,0.00,0.00,VWS V14.01,2013-06-23 04:06:00,
2013-06-22 21:11:00,69.0,30.7,29.70,SSW,213,0.0,2.0,24,0.00,,CLR,0.00,0.00,VWS V14.01,2013-06-23 04:11:00,
2013-06-22 21:16:00,68.7,32.5,29.70,SSW,213,0.0,0.0,26,0.00,,CLR,0.00,0.00,VWS V14.01,2013-06-23 04:16:00,
2013-06-22 21:21:00,68.6,31.4,29.70,SSW,213,0.0,0.0,25,0.00,,CLR,0.00,0.00,VWS V14.01,2013-06-23 04:21:00,
2013-06-22 21:26:00,68.5,31.3,29.70,SSW,213,0.0,0.0,25,0.00,,CLR,0.00,0.00,VWS V14.01,2013-06-23 04:26:00,
2013-06-22 21:31:00,68.3,31.1,29.70,SSW,213,0.0,0.0,25,0.00,,CLR,0.00,0.00,VWS V14.01,2013-06-23 04:31:00,
2013-06-22 21:36:00,68.0,30.9,29.70,SSW,213,0.0,0.0,25,0.00,,CLR,0.00,0.00,VWS V14.01,2013-06-23 04:36:00,
2013-06-22 21:41:00,67.7,31.6,29.70,SSW,213,0.0,0.0,26,0.00,,CLR,0.00,0.00,VWS V14.01,2013-06-23 04:41:00,
2013-06-22 21:46:00,67.3,31.3,29.70,SSW,213,0.0,0.0,26,0.00,,CLR,0.00,0.00,VWS V14.01,2013-06-23 04:46:00,
2013-06-22 21:51:00,67.0,31.0,29.70,SSW,213,0.0,0.0,26,0.00,,CLR,0.00,0.00,VWS V14.01,2013-06-23 04:51:00,
2013-06-22 21:56:00,66.8,30.8,29.71,SSW,213,0.0,0.0,26,0.00,,CLR,0.00,0.00,VWS V14.01,2013-06-23 04:56:00,
2013-06-22 22:01:00,66.5,30.6,29.71,SSW,213,0.0,0.0,26,0.00,,CLR,0.00,0.00,VWS V14.01,2013-06-23 05:01:00,
2013-06-22 22:06:00,66.2,31.3,29.71,SSW,213,0.0,0.0,27,0.00,,CLR,0.00,0.00,VWS V14.01,2013-06-23 05:06:00,
2013-06-22 22:11:00,66.0,31.1,29.71,SSW,213,0.0,0.0,27,0.00,,CLR,0.00,0.00,VWS V14.01,2013-06-23 05:11:00,
2013-06-22 22:16:00,65.8,30.0,29.71,SSW,213,0.0,0.0,26,0.00,,CLR,0.00,0.00,VWS V14.01,2013-06-23 05:16:00,
2013-06-22 22:21:00,65.5,30.7,29.71,SSW,213,0.0,1.0,27,0.00,,CLR,0.00,0.00,VWS V14.01,2013-06-23 05:21:00,
2013-06-22 22:26:00,65.2,30.4,29.71,SSW,213,0.0,0.0,27,0.00,,CLR,0.00,0.00,VWS V14.01,2013-06-23 05:26:00,
2013-06-22 22:31:00,65.0,30.2,29.71,SSW,213,0.0,0.0,27,0.00,,CLR,0.00,0.00,VWS V14.01,2013-06-23 05:31:00,
2013-06-22 22:36:00,64.7,30.0,29.70,SSW,213,0.0,0.0,27,0.00,,CLR,0.00,0.00,VWS V14.01,2013-06-23 05:36:00,
2013-06-22 22:41:00,64.4,29.7,29.70,SSW,213,0.0,0.0,27,0.00,,CLR,0.00,0.00,VWS V14.01,2013-06-23 05:41:00,
2013-06-22 22:46:00,64.2,29.5,29.70,SSW,213,0.0,0.0,27,0.00,,CLR,0.00,0.00,VWS V14.01,2013-06-23 05:46:00,
2013-06-22 22:51:00,64.0,29.4,29.70,SSW,213,0.0,0.0,27,0.00,,CLR,0.00,0.00,VWS V14.01,2013-06-23 05:51:00,
2013-06-22 22:56:00,63.8,31.0,29.70,SSW,213,0.0,1.0,29,0.00,,CLR,0.00,0.00,VWS V14.01,2013-06-23 05:56:00,
2013-06-22 23:01:00,63.5,30.7,29.70,SSW,213,1.0,1.0,29,0.00,,CLR,0.00,0.00,VWS V14.01,2013-06-23 06:01:00,
2013-06-22 23:06:00,63.4,29.8,29.70,SW,221,1.0,2.0,28,0.00,,CLR,0.00,0.00,VWS V14.01,2013-06-23 06:06:00,
2013-06-22 23:11:00,63.4,29.8,29.70,WSW,248,2.0,4.0,28,0.00,,CLR,0.00,0.00,VWS V14.01,2013-06-23 06:11:00,
2013-06-22 23:16:00,63.5,29.0,29.70,WSW,255,0.0,0.0,27,0.00,,CLR,0.00,0.00,VWS V14.01,2013-06-23 06:16:00,
2013-06-22 23:21:00,63.6,29.0,29.70,WSW,255,0.0,0.0,27,0.00,,CLR,0.00,0.00,VWS V14.01,2013-06-23 06:21:00,
2013-06-22 23:26:00,63.5,29.8,29.70,WSW,255,0.0,0.0,28,0.00,,CLR,0.00,0.00,VWS V14.01,2013-06-23 06:26:00,
2013-06-22 23:31:00,63.4,29.8,29.70,WSW,255,0.0,1.0,28,0.00,,CLR,0.00,0.00,VWS V14.01,2013-06-23 06:31:00,
2013-06-22 23:36:00,63.1,29.5,29.70,WSW,255,0.0,0.0,28,0.00,,CLR,0.00,0.00,VWS V14.01,2013-06-23 06:36:00,
2013-06-22 23:41:00,62.9,30.2,29.70,WSW,255,0.0,0.0,29,0.00,,CLR,0.00,0.00,VWS V14.01,2013-06-23 06:41:00,
2013-06-22 23:46:00,62.5,30.7,29.70,WSW,255,0.0,2.0,30,0.00,,CLR,0.00,0.00,VWS V14.01,2013-06-23 06:46:00,
2013-06-22 23:51:00,62.3,30.5,29.70,WSW,255,0.0,0.0,30,0.00,,CLR,0.00,0.00,VWS V14.01,2013-06-23 06:51:00,
2013-06-22 23:56:00,62.1,30.3,29.69,WSW,255,0.0,1.0,30,0.00,,CLR,0.00,0.00,VWS V14.01,2013-06-23 06:56:00,